sensor_id;sensor_type;location;lat;lon;timestamp;temperature;humidity
47310;DHT22;33046;52.270;6.832;2022-10-26T00:01:59;12.90;99.90
47310;DHT22;33046;52.270;6.832;2022-10-26T00:04:06;12.90;99.90
47310;DHT22;33046;52.270;6.832;2022-10-26T00:06:15;12.90;99.90
47310;DHT22;33046;52.270;6.832;2022-10-26T00:08:22;12.90;99.90
47310;DHT22;33046;52.270;6.832;2022-10-26T00:10:28;12.90;99.90
47310;DHT22;33046;52.270;6.832;2022-10-26T00:12:36;12.90;99.90
47310;DHT22;33046;52.270;6.832;2022-10-26T00:14:43;12.90;99.90
47310;DHT22;33046;52.270;6.832;2022-10-26T00:16:49;12.90;99.90
47310;DHT22;33046;52.270;6.832;2022-10-26T00:18:58;12.80;99.90
47310;DHT22;33046;52.270;6.832;2022-10-26T00:21:06;12.80;99.90
47310;DHT22;33046;52.270;6.832;2022-10-26T00:23:13;12.80;99.90
47310;DHT22;33046;52.270;6.832;2022-10-26T00:25:20;12.80;99.90
47310;DHT22;33046;52.270;6.832;2022-10-26T00:27:26;12.80;99.90
47310;DHT22;33046;52.270;6.832;2022-10-26T00:29:33;12.80;99.90
47310;DHT22;33046;52.270;6.832;2022-10-26T00:31:40;12.80;99.90
47310;DHT22;33046;52.270;6.832;2022-10-26T00:33:47;12.80;99.90
47310;DHT22;33046;52.270;6.832;2022-10-26T00:35:58;12.80;99.90
47310;DHT22;33046;52.270;6.832;2022-10-26T00:38:05;12.80;99.90
47310;DHT22;33046;52.270;6.832;2022-10-26T00:40:12;12.80;99.90
47310;DHT22;33046;52.270;6.832;2022-10-26T00:42:20;12.80;99.90
47310;DHT22;33046;52.270;6.832;2022-10-26T00:44:54;12.80;99.90
47310;DHT22;33046;52.270;6.832;2022-10-26T00:47:01;12.80;99.90
47310;DHT22;33046;52.270;6.832;2022-10-26T00:49:12;12.70;99.90
47310;DHT22;33046;52.270;6.832;2022-10-26T00:51:26;12.70;99.90
47310;DHT22;33046;52.270;6.832;2022-10-26T00:53:34;12.70;99.90
47310;DHT22;33046;52.270;6.832;2022-10-26T00:55:44;12.70;99.90
47310;DHT22;33046;52.270;6.832;2022-10-26T00:57:52;12.70;99.90
47310;DHT22;33046;52.270;6.832;2022-10-26T00:59:59;12.70;99.90
47310;DHT22;33046;52.270;6.832;2022-10-26T01:02:06;12.70;99.90
47310;DHT22;33046;52.270;6.832;2022-10-26T01:04:14;12.70;99.90
47310;DHT22;33046;52.270;6.832;2022-10-26T01:06:23;12.70;99.90
47310;DHT22;33046;52.270;6.832;2022-10-26T01:08:29;12.70;99.90
47310;DHT22;33046;52.270;6.832;2022-10-26T01:10:38;12.60;99.90
47310;DHT22;33046;52.270;6.832;2022-10-26T01:12:46;12.70;99.90
47310;DHT22;33046;52.270;6.832;2022-10-26T01:14:53;12.60;99.90
47310;DHT22;33046;52.270;6.832;2022-10-26T01:17:07;12.60;99.90
47310;DHT22;33046;52.270;6.832;2022-10-26T01:19:48;12.60;99.90
47310;DHT22;33046;52.270;6.832;2022-10-26T01:22:02;12.60;99.90
47310;DHT22;33046;52.270;6.832;2022-10-26T01:24:42;12.60;99.90
47310;DHT22;33046;52.270;6.832;2022-10-26T01:27:08;12.60;99.90
47310;DHT22;33046;52.270;6.832;2022-10-26T01:29:48;12.50;99.90
47310;DHT22;33046;52.270;6.832;2022-10-26T01:32:02;12.50;99.90
47310;DHT22;33046;52.270;6.832;2022-10-26T01:34:13;12.50;99.90
47310;DHT22;33046;52.270;6.832;2022-10-26T01:36:29;12.50;99.90
47310;DHT22;33046;52.270;6.832;2022-10-26T01:38:46;12.50;99.90
47310;DHT22;33046;52.270;6.832;2022-10-26T01:41:00;12.50;99.90
47310;DHT22;33046;52.270;6.832;2022-10-26T01:43:11;12.50;99.90
47310;DHT22;33046;52.270;6.832;2022-10-26T01:45:18;12.60;99.90
47310;DHT22;33046;52.270;6.832;2022-10-26T01:47:29;12.60;99.90
47310;DHT22;33046;52.270;6.832;2022-10-26T01:49:39;12.50;99.90
47310;DHT22;33046;52.270;6.832;2022-10-26T01:51:48;12.50;99.90
47310;DHT22;33046;52.270;6.832;2022-10-26T01:53:57;12.50;99.90
47310;DHT22;33046;52.270;6.832;2022-10-26T01:56:04;12.60;99.90
47310;DHT22;33046;52.270;6.832;2022-10-26T01:58:30;12.60;99.90
47310;DHT22;33046;52.270;6.832;2022-10-26T02:00:48;12.60;99.90
47310;DHT22;33046;52.270;6.832;2022-10-26T02:03:07;12.60;99.90
47310;DHT22;33046;52.270;6.832;2022-10-26T02:05:28;12.60;99.90
47310;DHT22;33046;52.270;6.832;2022-10-26T02:07:44;12.60;99.90
47310;DHT22;33046;52.270;6.832;2022-10-26T02:09:59;12.60;99.90
47310;DHT22;33046;52.270;6.832;2022-10-26T02:12:18;12.60;99.90
47310;DHT22;33046;52.270;6.832;2022-10-26T02:14:34;12.60;99.90
47310;DHT22;33046;52.270;6.832;2022-10-26T02:16:48;12.60;99.90
47310;DHT22;33046;52.270;6.832;2022-10-26T02:19:02;12.60;99.90
47310;DHT22;33046;52.270;6.832;2022-10-26T02:21:14;12.60;99.90
47310;DHT22;33046;52.270;6.832;2022-10-26T02:23:24;12.60;99.90
47310;DHT22;33046;52.270;6.832;2022-10-26T02:25:35;12.60;99.90
47310;DHT22;33046;52.270;6.832;2022-10-26T02:27:50;12.60;99.90
47310;DHT22;33046;52.270;6.832;2022-10-26T02:29:58;12.60;99.90
47310;DHT22;33046;52.270;6.832;2022-10-26T02:32:07;12.60;99.90
47310;DHT22;33046;52.270;6.832;2022-10-26T02:34:20;12.60;99.90
47310;DHT22;33046;52.270;6.832;2022-10-26T02:36:28;12.60;99.90
47310;DHT22;33046;52.270;6.832;2022-10-26T02:38:37;12.60;99.90
47310;DHT22;33046;52.270;6.832;2022-10-26T02:40:45;12.60;99.90
47310;DHT22;33046;52.270;6.832;2022-10-26T02:42:56;12.60;99.90
47310;DHT22;33046;52.270;6.832;2022-10-26T02:45:07;12.60;99.90
47310;DHT22;33046;52.270;6.832;2022-10-26T02:47:16;12.60;99.90
47310;DHT22;33046;52.270;6.832;2022-10-26T02:49:25;12.60;99.90
47310;DHT22;33046;52.270;6.832;2022-10-26T02:51:34;12.60;99.90
47310;DHT22;33046;52.270;6.832;2022-10-26T02:53:49;12.60;99.90
47310;DHT22;33046;52.270;6.832;2022-10-26T02:55:59;12.60;99.90
47310;DHT22;33046;52.270;6.832;2022-10-26T02:58:13;12.60;99.90
47310;DHT22;33046;52.270;6.832;2022-10-26T03:00:21;12.60;99.90
47310;DHT22;33046;52.270;6.832;2022-10-26T03:02:28;12.50;99.90
47310;DHT22;33046;52.270;6.832;2022-10-26T03:04:36;12.60;99.90
47310;DHT22;33046;52.270;6.832;2022-10-26T03:06:51;12.50;99.90
47310;DHT22;33046;52.270;6.832;2022-10-26T03:08:58;12.60;99.90
47310;DHT22;33046;52.270;6.832;2022-10-26T03:11:05;12.60;99.90
47310;DHT22;33046;52.270;6.832;2022-10-26T03:13:12;12.50;99.90
47310;DHT22;33046;52.270;6.832;2022-10-26T03:15:19;12.50;99.90
47310;DHT22;33046;52.270;6.832;2022-10-26T03:17:26;12.50;99.90
47310;DHT22;33046;52.270;6.832;2022-10-26T03:19:33;12.50;99.90
47310;DHT22;33046;52.270;6.832;2022-10-26T03:21:41;12.60;99.90
47310;DHT22;33046;52.270;6.832;2022-10-26T03:23:47;12.50;99.90
47310;DHT22;33046;52.270;6.832;2022-10-26T03:25:55;12.60;99.90
47310;DHT22;33046;52.270;6.832;2022-10-26T03:28:03;12.60;99.90
47310;DHT22;33046;52.270;6.832;2022-10-26T03:30:10;12.50;99.90
47310;DHT22;33046;52.270;6.832;2022-10-26T03:32:17;12.60;99.90
47310;DHT22;33046;52.270;6.832;2022-10-26T03:34:24;12.50;99.90
47310;DHT22;33046;52.270;6.832;2022-10-26T03:36:31;12.60;99.90
47310;DHT22;33046;52.270;6.832;2022-10-26T03:38:39;12.60;99.90
47310;DHT22;33046;52.270;6.832;2022-10-26T03:40:46;12.60;99.90
47310;DHT22;33046;52.270;6.832;2022-10-26T03:42:53;12.60;99.90
47310;DHT22;33046;52.270;6.832;2022-10-26T03:44:59;12.60;99.90
47310;DHT22;33046;52.270;6.832;2022-10-26T03:47:06;12.60;99.90
47310;DHT22;33046;52.270;6.832;2022-10-26T03:49:13;12.60;99.90
47310;DHT22;33046;52.270;6.832;2022-10-26T03:51:20;12.60;99.90
47310;DHT22;33046;52.270;6.832;2022-10-26T03:53:27;12.60;99.90
47310;DHT22;33046;52.270;6.832;2022-10-26T03:55:35;12.70;99.90
47310;DHT22;33046;52.270;6.832;2022-10-26T03:57:43;12.70;99.90
47310;DHT22;33046;52.270;6.832;2022-10-26T03:59:50;12.60;99.90
47310;DHT22;33046;52.270;6.832;2022-10-26T04:01:57;12.60;99.90
47310;DHT22;33046;52.270;6.832;2022-10-26T04:04:04;12.60;99.90
47310;DHT22;33046;52.270;6.832;2022-10-26T04:06:11;12.70;99.90
47310;DHT22;33046;52.270;6.832;2022-10-26T04:08:17;12.70;99.90
47310;DHT22;33046;52.270;6.832;2022-10-26T04:10:26;12.60;99.90
47310;DHT22;33046;52.270;6.832;2022-10-26T04:12:36;12.70;99.90
47310;DHT22;33046;52.270;6.832;2022-10-26T04:14:43;12.70;99.90
47310;DHT22;33046;52.270;6.832;2022-10-26T04:16:50;12.70;99.90
47310;DHT22;33046;52.270;6.832;2022-10-26T04:18:57;12.70;99.90
47310;DHT22;33046;52.270;6.832;2022-10-26T04:21:04;12.70;99.90
47310;DHT22;33046;52.270;6.832;2022-10-26T04:23:13;12.70;99.90
47310;DHT22;33046;52.270;6.832;2022-10-26T04:25:20;12.70;99.90
47310;DHT22;33046;52.270;6.832;2022-10-26T04:27:26;12.70;99.90
47310;DHT22;33046;52.270;6.832;2022-10-26T04:29:35;12.70;99.90
47310;DHT22;33046;52.270;6.832;2022-10-26T04:31:41;12.70;99.90
47310;DHT22;33046;52.270;6.832;2022-10-26T04:33:49;12.70;99.90
47310;DHT22;33046;52.270;6.832;2022-10-26T04:35:58;12.70;99.90
47310;DHT22;33046;52.270;6.832;2022-10-26T04:38:05;12.70;99.90
47310;DHT22;33046;52.270;6.832;2022-10-26T04:40:13;12.70;99.90
47310;DHT22;33046;52.270;6.832;2022-10-26T04:42:19;12.70;99.90
47310;DHT22;33046;52.270;6.832;2022-10-26T04:44:26;12.70;99.90
47310;DHT22;33046;52.270;6.832;2022-10-26T04:46:34;12.70;99.90
47310;DHT22;33046;52.270;6.832;2022-10-26T04:48:41;12.70;99.90
47310;DHT22;33046;52.270;6.832;2022-10-26T04:50:48;12.70;99.90
47310;DHT22;33046;52.270;6.832;2022-10-26T04:52:55;12.70;99.90
47310;DHT22;33046;52.270;6.832;2022-10-26T04:55:02;12.70;99.90
47310;DHT22;33046;52.270;6.832;2022-10-26T04:57:09;12.70;99.90
47310;DHT22;33046;52.270;6.832;2022-10-26T04:59:16;12.70;99.90
47310;DHT22;33046;52.270;6.832;2022-10-26T05:01:23;12.70;99.90
47310;DHT22;33046;52.270;6.832;2022-10-26T05:03:31;12.70;99.90
47310;DHT22;33046;52.270;6.832;2022-10-26T05:05:38;12.70;99.90
47310;DHT22;33046;52.270;6.832;2022-10-26T05:07:52;12.70;99.90
47310;DHT22;33046;52.270;6.832;2022-10-26T05:09:59;12.70;99.90
47310;DHT22;33046;52.270;6.832;2022-10-26T05:12:06;12.70;99.90
47310;DHT22;33046;52.270;6.832;2022-10-26T05:14:13;12.70;99.90
47310;DHT22;33046;52.270;6.832;2022-10-26T05:16:19;12.70;99.90
47310;DHT22;33046;52.270;6.832;2022-10-26T05:18:26;12.70;99.90
47310;DHT22;33046;52.270;6.832;2022-10-26T05:20:35;12.70;99.90
47310;DHT22;33046;52.270;6.832;2022-10-26T05:22:41;12.70;99.90
47310;DHT22;33046;52.270;6.832;2022-10-26T05:24:48;12.70;99.90
47310;DHT22;33046;52.270;6.832;2022-10-26T05:26:55;12.70;99.90
47310;DHT22;33046;52.270;6.832;2022-10-26T05:29:02;12.70;99.90
47310;DHT22;33046;52.270;6.832;2022-10-26T05:31:09;12.70;99.90
47310;DHT22;33046;52.270;6.832;2022-10-26T05:33:15;12.70;99.90
47310;DHT22;33046;52.270;6.832;2022-10-26T05:35:22;12.70;99.90
47310;DHT22;33046;52.270;6.832;2022-10-26T05:37:31;12.70;99.90
47310;DHT22;33046;52.270;6.832;2022-10-26T05:39:38;12.70;99.90
47310;DHT22;33046;52.270;6.832;2022-10-26T05:41:44;12.70;99.90
47310;DHT22;33046;52.270;6.832;2022-10-26T05:43:51;12.80;99.90
47310;DHT22;33046;52.270;6.832;2022-10-26T05:45:58;12.70;99.90
47310;DHT22;33046;52.270;6.832;2022-10-26T05:48:05;12.80;99.90
47310;DHT22;33046;52.270;6.832;2022-10-26T05:50:12;12.80;99.90
47310;DHT22;33046;52.270;6.832;2022-10-26T05:52:19;12.80;99.90
47310;DHT22;33046;52.270;6.832;2022-10-26T05:54:27;12.80;99.90
47310;DHT22;33046;52.270;6.832;2022-10-26T05:56:35;12.80;99.90
47310;DHT22;33046;52.270;6.832;2022-10-26T05:58:43;12.80;99.90
47310;DHT22;33046;52.270;6.832;2022-10-26T06:01:00;12.80;99.90
47310;DHT22;33046;52.270;6.832;2022-10-26T06:03:21;12.80;99.90
47310;DHT22;33046;52.270;6.832;2022-10-26T06:05:34;12.80;99.90
47310;DHT22;33046;52.270;6.832;2022-10-26T06:07:43;12.80;99.90
47310;DHT22;33046;52.270;6.832;2022-10-26T06:09:52;12.80;99.90
47310;DHT22;33046;52.270;6.832;2022-10-26T06:11:59;12.80;99.90
47310;DHT22;33046;52.270;6.832;2022-10-26T06:14:07;12.80;99.90
47310;DHT22;33046;52.270;6.832;2022-10-26T06:16:30;12.80;99.90
47310;DHT22;33046;52.270;6.832;2022-10-26T06:18:44;12.80;99.90
47310;DHT22;33046;52.270;6.832;2022-10-26T06:21:08;12.80;99.90
47310;DHT22;33046;52.270;6.832;2022-10-26T06:23:30;12.80;99.90
47310;DHT22;33046;52.270;6.832;2022-10-26T06:25:45;12.80;99.90
47310;DHT22;33046;52.270;6.832;2022-10-26T06:28:06;12.80;99.90
47310;DHT22;33046;52.270;6.832;2022-10-26T06:30:17;12.70;99.90
47310;DHT22;33046;52.270;6.832;2022-10-26T06:32:24;12.70;99.90
47310;DHT22;33046;52.270;6.832;2022-10-26T06:34:34;12.70;99.90
47310;DHT22;33046;52.270;6.832;2022-10-26T06:36:41;12.70;99.90
47310;DHT22;33046;52.270;6.832;2022-10-26T06:38:51;12.70;99.90
47310;DHT22;33046;52.270;6.832;2022-10-26T06:41:01;12.70;99.90
47310;DHT22;33046;52.270;6.832;2022-10-26T06:43:12;12.70;99.90
47310;DHT22;33046;52.270;6.832;2022-10-26T06:45:20;12.70;99.90
47310;DHT22;33046;52.270;6.832;2022-10-26T06:47:32;12.70;99.90
47310;DHT22;33046;52.270;6.832;2022-10-26T06:49:56;12.70;99.90
47310;DHT22;33046;52.270;6.832;2022-10-26T06:52:11;12.70;99.90
47310;DHT22;33046;52.270;6.832;2022-10-26T06:54:24;12.70;99.90
47310;DHT22;33046;52.270;6.832;2022-10-26T06:56:34;12.70;99.90
47310;DHT22;33046;52.270;6.832;2022-10-26T06:58:42;12.70;99.90
47310;DHT22;33046;52.270;6.832;2022-10-26T07:00:52;12.70;99.90
47310;DHT22;33046;52.270;6.832;2022-10-26T07:02:59;12.70;99.90
47310;DHT22;33046;52.270;6.832;2022-10-26T07:05:06;12.70;99.90
47310;DHT22;33046;52.270;6.832;2022-10-26T07:07:16;12.70;99.90
47310;DHT22;33046;52.270;6.832;2022-10-26T07:09:24;12.70;99.90
47310;DHT22;33046;52.270;6.832;2022-10-26T07:11:30;12.70;99.90
47310;DHT22;33046;52.270;6.832;2022-10-26T07:13:39;12.60;99.90
47310;DHT22;33046;52.270;6.832;2022-10-26T07:15:45;12.70;99.90
47310;DHT22;33046;52.270;6.832;2022-10-26T07:17:52;12.70;99.90
47310;DHT22;33046;52.270;6.832;2022-10-26T07:19:59;12.70;99.90
47310;DHT22;33046;52.270;6.832;2022-10-26T07:22:06;12.70;99.90
47310;DHT22;33046;52.270;6.832;2022-10-26T07:24:13;12.70;99.90
47310;DHT22;33046;52.270;6.832;2022-10-26T07:26:19;12.70;99.90
47310;DHT22;33046;52.270;6.832;2022-10-26T07:28:26;12.70;99.90
47310;DHT22;33046;52.270;6.832;2022-10-26T07:30:35;12.80;99.90
47310;DHT22;33046;52.270;6.832;2022-10-26T07:32:43;12.80;99.90
47310;DHT22;33046;52.270;6.832;2022-10-26T07:34:49;12.80;99.90
47310;DHT22;33046;52.270;6.832;2022-10-26T07:36:58;12.80;99.90
47310;DHT22;33046;52.270;6.832;2022-10-26T07:39:05;12.90;99.90
47310;DHT22;33046;52.270;6.832;2022-10-26T07:41:12;12.90;99.90
47310;DHT22;33046;52.270;6.832;2022-10-26T07:43:18;13.00;99.90
47310;DHT22;33046;52.270;6.832;2022-10-26T07:45:25;13.00;99.90
47310;DHT22;33046;52.270;6.832;2022-10-26T07:47:34;13.00;99.90
47310;DHT22;33046;52.270;6.832;2022-10-26T07:49:40;13.10;99.90
47310;DHT22;33046;52.270;6.832;2022-10-26T07:51:47;13.10;99.90
47310;DHT22;33046;52.270;6.832;2022-10-26T07:53:54;13.20;99.90
47310;DHT22;33046;52.270;6.832;2022-10-26T07:56:01;13.30;99.90
47310;DHT22;33046;52.270;6.832;2022-10-26T07:58:08;13.30;99.90
47310;DHT22;33046;52.270;6.832;2022-10-26T08:00:14;13.40;99.90
47310;DHT22;33046;52.270;6.832;2022-10-26T08:02:23;13.40;99.90
47310;DHT22;33046;52.270;6.832;2022-10-26T08:04:31;13.50;99.90
47310;DHT22;33046;52.270;6.832;2022-10-26T08:06:38;13.50;99.90
47310;DHT22;33046;52.270;6.832;2022-10-26T08:08:44;13.60;99.90
47310;DHT22;33046;52.270;6.832;2022-10-26T08:10:52;13.60;99.90
47310;DHT22;33046;52.270;6.832;2022-10-26T08:12:58;13.70;99.90
47310;DHT22;33046;52.270;6.832;2022-10-26T08:15:06;13.70;99.90
47310;DHT22;33046;52.270;6.832;2022-10-26T08:17:13;13.80;99.90
47310;DHT22;33046;52.270;6.832;2022-10-26T08:19:20;13.70;99.90
47310;DHT22;33046;52.270;6.832;2022-10-26T08:21:28;13.80;99.90
47310;DHT22;33046;52.270;6.832;2022-10-26T08:23:41;13.80;99.90
47310;DHT22;33046;52.270;6.832;2022-10-26T08:25:48;13.80;99.90
47310;DHT22;33046;52.270;6.832;2022-10-26T08:28:00;13.80;99.90
47310;DHT22;33046;52.270;6.832;2022-10-26T08:30:07;13.90;99.90
47310;DHT22;33046;52.270;6.832;2022-10-26T08:32:14;13.90;99.90
47310;DHT22;33046;52.270;6.832;2022-10-26T08:34:21;13.90;99.90
47310;DHT22;33046;52.270;6.832;2022-10-26T08:36:29;13.90;99.90
47310;DHT22;33046;52.270;6.832;2022-10-26T08:38:36;13.90;99.90
47310;DHT22;33046;52.270;6.832;2022-10-26T08:40:42;13.90;99.90
47310;DHT22;33046;52.270;6.832;2022-10-26T08:42:53;13.90;99.90
47310;DHT22;33046;52.270;6.832;2022-10-26T08:45:04;13.90;99.90
47310;DHT22;33046;52.270;6.832;2022-10-26T08:47:17;14.00;99.90
47310;DHT22;33046;52.270;6.832;2022-10-26T08:49:28;14.00;99.90
47310;DHT22;33046;52.270;6.832;2022-10-26T08:51:39;14.00;99.90
47310;DHT22;33046;52.270;6.832;2022-10-26T08:53:49;14.10;99.90
47310;DHT22;33046;52.270;6.832;2022-10-26T08:56:00;14.10;99.90
47310;DHT22;33046;52.270;6.832;2022-10-26T08:58:14;14.10;99.90
47310;DHT22;33046;52.270;6.832;2022-10-26T09:00:22;14.20;99.90
47310;DHT22;33046;52.270;6.832;2022-10-26T09:02:30;14.20;99.90
47310;DHT22;33046;52.270;6.832;2022-10-26T09:04:37;14.20;99.90
47310;DHT22;33046;52.270;6.832;2022-10-26T09:06:53;14.30;99.90
47310;DHT22;33046;52.270;6.832;2022-10-26T09:09:05;14.30;99.90
47310;DHT22;33046;52.270;6.832;2022-10-26T09:11:18;14.30;99.90
47310;DHT22;33046;52.270;6.832;2022-10-26T09:13:39;14.40;99.90
47310;DHT22;33046;52.270;6.832;2022-10-26T09:15:59;14.40;99.90
47310;DHT22;33046;52.270;6.832;2022-10-26T09:18:18;14.50;99.90
47310;DHT22;33046;52.270;6.832;2022-10-26T09:20:46;14.50;99.90
47310;DHT22;33046;52.270;6.832;2022-10-26T09:23:01;14.50;99.90
47310;DHT22;33046;52.270;6.832;2022-10-26T09:25:17;14.60;99.90
47310;DHT22;33046;52.270;6.832;2022-10-26T09:27:26;14.60;99.90
47310;DHT22;33046;52.270;6.832;2022-10-26T09:29:38;14.70;99.90
47310;DHT22;33046;52.270;6.832;2022-10-26T09:31:47;14.70;99.90
47310;DHT22;33046;52.270;6.832;2022-10-26T09:33:56;14.80;99.90
47310;DHT22;33046;52.270;6.832;2022-10-26T09:36:05;14.80;99.90
47310;DHT22;33046;52.270;6.832;2022-10-26T09:38:19;14.80;99.90
47310;DHT22;33046;52.270;6.832;2022-10-26T09:40:32;14.90;99.90
47310;DHT22;33046;52.270;6.832;2022-10-26T09:42:44;15.00;99.90
47310;DHT22;33046;52.270;6.832;2022-10-26T09:44:57;15.10;99.90
47310;DHT22;33046;52.270;6.832;2022-10-26T09:47:13;15.10;99.90
47310;DHT22;33046;52.270;6.832;2022-10-26T09:49:27;15.20;99.90
47310;DHT22;33046;52.270;6.832;2022-10-26T09:51:36;15.20;99.90
47310;DHT22;33046;52.270;6.832;2022-10-26T09:53:46;15.30;99.90
47310;DHT22;33046;52.270;6.832;2022-10-26T09:56:00;15.30;99.90
47310;DHT22;33046;52.270;6.832;2022-10-26T09:58:13;15.40;99.90
47310;DHT22;33046;52.270;6.832;2022-10-26T10:00:23;15.40;99.90
47310;DHT22;33046;52.270;6.832;2022-10-26T10:02:35;15.50;99.90
47310;DHT22;33046;52.270;6.832;2022-10-26T10:04:46;15.50;99.90
47310;DHT22;33046;52.270;6.832;2022-10-26T10:07:12;15.60;99.90
47310;DHT22;33046;52.270;6.832;2022-10-26T10:09:21;15.70;99.90
47310;DHT22;33046;52.270;6.832;2022-10-26T10:11:36;15.70;99.90
47310;DHT22;33046;52.270;6.832;2022-10-26T10:13:44;15.80;99.90
47310;DHT22;33046;52.270;6.832;2022-10-26T10:15:53;15.80;99.90
47310;DHT22;33046;52.270;6.832;2022-10-26T10:18:00;15.90;99.90
47310;DHT22;33046;52.270;6.832;2022-10-26T10:20:08;16.00;99.90
47310;DHT22;33046;52.270;6.832;2022-10-26T10:22:19;16.00;99.90
47310;DHT22;33046;52.270;6.832;2022-10-26T10:24:30;16.00;99.90
47310;DHT22;33046;52.270;6.832;2022-10-26T10:26:55;16.10;99.90
47310;DHT22;33046;52.270;6.832;2022-10-26T10:29:02;16.10;99.90
47310;DHT22;33046;52.270;6.832;2022-10-26T10:31:19;16.20;99.90
47310;DHT22;33046;52.270;6.832;2022-10-26T10:33:35;16.20;99.90
47310;DHT22;33046;52.270;6.832;2022-10-26T10:35:47;16.30;99.90
47310;DHT22;33046;52.270;6.832;2022-10-26T10:37:55;16.30;99.90
47310;DHT22;33046;52.270;6.832;2022-10-26T10:40:06;16.40;99.90
47310;DHT22;33046;52.270;6.832;2022-10-26T10:42:16;16.40;99.90
47310;DHT22;33046;52.270;6.832;2022-10-26T10:44:26;16.40;99.90
47310;DHT22;33046;52.270;6.832;2022-10-26T10:46:34;16.50;99.90
47310;DHT22;33046;52.270;6.832;2022-10-26T10:48:46;16.60;99.90
47310;DHT22;33046;52.270;6.832;2022-10-26T10:50:55;16.60;99.90
47310;DHT22;33046;52.270;6.832;2022-10-26T10:53:14;16.60;99.90
47310;DHT22;33046;52.270;6.832;2022-10-26T10:55:23;16.70;99.90
47310;DHT22;33046;52.270;6.832;2022-10-26T10:57:36;16.70;99.90
47310;DHT22;33046;52.270;6.832;2022-10-26T10:59:50;16.70;99.90
47310;DHT22;33046;52.270;6.832;2022-10-26T11:04:46;16.80;99.90
47310;DHT22;33046;52.270;6.832;2022-10-26T11:06:59;16.90;99.90
47310;DHT22;33046;52.270;6.832;2022-10-26T11:09:10;16.90;99.90
47310;DHT22;33046;52.270;6.832;2022-10-26T11:11:24;16.90;99.90
47310;DHT22;33046;52.270;6.832;2022-10-26T11:13:35;17.00;99.90
47310;DHT22;33046;52.270;6.832;2022-10-26T11:15:46;17.00;99.90
47310;DHT22;33046;52.270;6.832;2022-10-26T11:17:59;17.00;99.90
47310;DHT22;33046;52.270;6.832;2022-10-26T11:20:12;17.10;99.90
47310;DHT22;33046;52.270;6.832;2022-10-26T11:22:24;17.10;99.90
47310;DHT22;33046;52.270;6.832;2022-10-26T11:24:36;17.00;99.90
47310;DHT22;33046;52.270;6.832;2022-10-26T11:26:49;17.10;99.90
47310;DHT22;33046;52.270;6.832;2022-10-26T11:29:00;17.10;99.90
47310;DHT22;33046;52.270;6.832;2022-10-26T11:31:13;17.20;99.90
47310;DHT22;33046;52.270;6.832;2022-10-26T11:33:25;17.20;99.90
47310;DHT22;33046;52.270;6.832;2022-10-26T11:35:39;17.20;99.90
47310;DHT22;33046;52.270;6.832;2022-10-26T11:37:47;17.30;99.90
47310;DHT22;33046;52.270;6.832;2022-10-26T11:40:02;17.30;99.90
47310;DHT22;33046;52.270;6.832;2022-10-26T11:42:20;17.30;99.90
47310;DHT22;33046;52.270;6.832;2022-10-26T11:44:30;17.40;99.90
47310;DHT22;33046;52.270;6.832;2022-10-26T11:46:41;17.40;99.90
47310;DHT22;33046;52.270;6.832;2022-10-26T11:48:53;17.40;99.90
47310;DHT22;33046;52.270;6.832;2022-10-26T11:51:01;17.40;99.90
47310;DHT22;33046;52.270;6.832;2022-10-26T11:53:11;17.50;99.90
47310;DHT22;33046;52.270;6.832;2022-10-26T11:55:21;17.50;99.90
47310;DHT22;33046;52.270;6.832;2022-10-26T11:57:31;17.50;99.90
47310;DHT22;33046;52.270;6.832;2022-10-26T11:59:43;17.50;99.90
47310;DHT22;33046;52.270;6.832;2022-10-26T12:01:53;17.50;99.90
47310;DHT22;33046;52.270;6.832;2022-10-26T12:04:02;17.50;99.90
47310;DHT22;33046;52.270;6.832;2022-10-26T12:06:09;17.60;99.90
47310;DHT22;33046;52.270;6.832;2022-10-26T12:08:20;17.60;99.90
47310;DHT22;33046;52.270;6.832;2022-10-26T12:10:31;17.60;99.90
47310;DHT22;33046;52.270;6.832;2022-10-26T12:12:44;17.60;99.90
47310;DHT22;33046;52.270;6.832;2022-10-26T12:14:58;17.60;99.90
47310;DHT22;33046;52.270;6.832;2022-10-26T12:17:09;17.60;99.90
47310;DHT22;33046;52.270;6.832;2022-10-26T12:19:21;17.60;99.90
47310;DHT22;33046;52.270;6.832;2022-10-26T12:21:31;17.70;99.90
47310;DHT22;33046;52.270;6.832;2022-10-26T12:23:53;17.70;99.90
47310;DHT22;33046;52.270;6.832;2022-10-26T12:26:37;17.70;99.90
47310;DHT22;33046;52.270;6.832;2022-10-26T12:28:46;17.70;99.90
47310;DHT22;33046;52.270;6.832;2022-10-26T12:31:39;17.80;99.90
47310;DHT22;33046;52.270;6.832;2022-10-26T12:33:50;17.70;99.90
47310;DHT22;33046;52.270;6.832;2022-10-26T12:35:57;17.80;99.90
47310;DHT22;33046;52.270;6.832;2022-10-26T12:40:47;17.80;99.90
47310;DHT22;33046;52.270;6.832;2022-10-26T12:42:54;17.80;99.90
47310;DHT22;33046;52.270;6.832;2022-10-26T12:45:15;17.80;99.90
47310;DHT22;33046;52.270;6.832;2022-10-26T12:50:21;17.80;99.90
47310;DHT22;33046;52.270;6.832;2022-10-26T12:52:37;17.80;99.90
47310;DHT22;33046;52.270;6.832;2022-10-26T12:54:53;17.80;99.90
47310;DHT22;33046;52.270;6.832;2022-10-26T12:57:10;17.80;99.90
47310;DHT22;33046;52.270;6.832;2022-10-26T12:59:28;17.80;99.90
47310;DHT22;33046;52.270;6.832;2022-10-26T13:02:02;17.90;99.90
47310;DHT22;33046;52.270;6.832;2022-10-26T13:07:18;17.90;99.90
47310;DHT22;33046;52.270;6.832;2022-10-26T13:09:28;17.90;99.90
47310;DHT22;33046;52.270;6.832;2022-10-26T13:11:37;17.90;99.90
47310;DHT22;33046;52.270;6.832;2022-10-26T13:13:53;17.90;99.90
47310;DHT22;33046;52.270;6.832;2022-10-26T13:16:01;17.90;99.90
47310;DHT22;33046;52.270;6.832;2022-10-26T13:18:14;18.00;99.90
47310;DHT22;33046;52.270;6.832;2022-10-26T13:20:22;18.00;99.90
47310;DHT22;33046;52.270;6.832;2022-10-26T13:22:30;18.00;99.90
47310;DHT22;33046;52.270;6.832;2022-10-26T13:24:37;18.00;99.90
47310;DHT22;33046;52.270;6.832;2022-10-26T13:27:21;18.00;99.90
47310;DHT22;33046;52.270;6.832;2022-10-26T13:29:29;18.00;99.90
47310;DHT22;33046;52.270;6.832;2022-10-26T13:31:53;18.00;99.90
47310;DHT22;33046;52.270;6.832;2022-10-26T13:34:04;18.10;99.90
47310;DHT22;33046;52.270;6.832;2022-10-26T13:36:18;18.10;99.90
47310;DHT22;33046;52.270;6.832;2022-10-26T13:38:31;18.10;99.90
47310;DHT22;33046;52.270;6.832;2022-10-26T13:40:39;18.10;99.90
47310;DHT22;33046;52.270;6.832;2022-10-26T13:42:49;18.10;99.90
47310;DHT22;33046;52.270;6.832;2022-10-26T13:45:01;18.10;99.90
47310;DHT22;33046;52.270;6.832;2022-10-26T13:47:10;18.10;99.90
47310;DHT22;33046;52.270;6.832;2022-10-26T13:49:25;18.10;99.90
47310;DHT22;33046;52.270;6.832;2022-10-26T13:51:42;18.20;99.90
47310;DHT22;33046;52.270;6.832;2022-10-26T13:53:51;18.10;99.90
47310;DHT22;33046;52.270;6.832;2022-10-26T13:56:02;18.20;99.90
47310;DHT22;33046;52.270;6.832;2022-10-26T13:58:17;18.10;99.90